sensor_id;sensor_type;location;lat;lon;timestamp;P1;durP1;ratioP1;P2;durP2;ratioP2
8094;SDS011;4090;49.270;8.696;2022-10-19T08:56:33;14.00;;;6.93;;
8094;SDS011;4090;49.270;8.696;2022-10-19T08:59:23;10.88;;;6.72;;
8094;SDS011;4090;49.270;8.696;2022-10-19T09:02:15;7.85;;;5.65;;
8094;SDS011;4090;49.270;8.696;2022-10-19T09:05:02;10.25;;;6.07;;
8094;SDS011;4090;49.270;8.696;2022-10-19T09:07:52;11.52;;;6.82;;
8094;SDS011;4090;49.270;8.696;2022-10-19T09:10:34;11.13;;;6.25;;
8094;SDS011;4090;49.270;8.696;2022-10-19T09:13:20;12.68;;;6.90;;
8094;SDS011;4090;49.270;8.696;2022-10-19T09:16:13;13.90;;;7.03;;
8094;SDS011;4090;49.270;8.696;2022-10-19T09:18:57;11.63;;;6.82;;
8094;SDS011;4090;49.270;8.696;2022-10-19T09:21:39;13.13;;;7.22;;
8094;SDS011;4090;49.270;8.696;2022-10-19T09:24:31;11.50;;;6.93;;
8094;SDS011;4090;49.270;8.696;2022-10-19T09:27:23;12.85;;;6.72;;
8094;SDS011;4090;49.270;8.696;2022-10-19T09:30:09;9.65;;;6.18;;
8094;SDS011;4090;49.270;8.696;2022-10-19T09:32:58;8.70;;;6.07;;
8094;SDS011;4090;49.270;8.696;2022-10-19T09:35:42;9.20;;;5.97;;
8094;SDS011;4090;49.270;8.696;2022-10-19T09:38:26;8.63;;;5.90;;
8094;SDS011;4090;49.270;8.696;2022-10-19T09:41:13;7.82;;;5.32;;
8094;SDS011;4090;49.270;8.696;2022-10-19T09:43:58;8.32;;;5.57;;
8094;SDS011;4090;49.270;8.696;2022-10-19T09:46:41;8.90;;;6.15;;
8094;SDS011;4090;49.270;8.696;2022-10-19T09:49:38;8.48;;;5.82;;
8094;SDS011;4090;49.270;8.696;2022-10-19T09:52:22;11.57;;;6.50;;
8094;SDS011;4090;49.270;8.696;2022-10-19T09:55:16;8.70;;;6.18;;
8094;SDS011;4090;49.270;8.696;2022-10-19T09:58:13;7.05;;;5.63;;
8094;SDS011;4090;49.270;8.696;2022-10-19T10:00:57;8.85;;;5.63;;
8094;SDS011;4090;49.270;8.696;2022-10-19T10:03:39;8.82;;;5.75;;
8094;SDS011;4090;49.270;8.696;2022-10-19T10:06:22;8.02;;;5.35;;
8094;SDS011;4090;49.270;8.696;2022-10-19T10:09:04;10.23;;;5.18;;
8094;SDS011;4090;49.270;8.696;2022-10-19T10:11:47;8.40;;;5.57;;
8094;SDS011;4090;49.270;8.696;2022-10-19T10:14:32;6.65;;;5.35;;
8094;SDS011;4090;49.270;8.696;2022-10-19T10:17:19;7.60;;;4.90;;
8094;SDS011;4090;49.270;8.696;2022-10-19T10:20:05;8.23;;;5.10;;
8094;SDS011;4090;49.270;8.696;2022-10-19T10:23:00;7.07;;;5.20;;
8094;SDS011;4090;49.270;8.696;2022-10-19T10:25:44;7.82;;;5.43;;
8094;SDS011;4090;49.270;8.696;2022-10-19T10:28:30;10.70;;;5.43;;
8094;SDS011;4090;49.270;8.696;2022-10-19T10:31:13;7.82;;;5.43;;
8094;SDS011;4090;49.270;8.696;2022-10-19T10:33:59;6.88;;;4.68;;
8094;SDS011;4090;49.270;8.696;2022-10-19T10:36:42;6.07;;;4.38;;
8094;SDS011;4090;49.270;8.696;2022-10-19T10:39:24;5.97;;;4.57;;
8094;SDS011;4090;49.270;8.696;2022-10-19T10:42:08;6.25;;;5.00;;
8094;SDS011;4090;49.270;8.696;2022-10-19T10:44:57;5.15;;;4.38;;
8094;SDS011;4090;49.270;8.696;2022-10-19T10:47:42;5.82;;;4.32;;
8094;SDS011;4090;49.270;8.696;2022-10-19T10:50:30;8.75;;;4.07;;
8094;SDS011;4090;49.270;8.696;2022-10-19T10:56:23;5.72;;;4.20;;
8094;SDS011;4090;49.270;8.696;2022-10-19T10:59:09;5.90;;;4.60;;
8094;SDS011;4090;49.270;8.696;2022-10-19T11:01:57;5.13;;;4.18;;
8094;SDS011;4090;49.270;8.696;2022-10-19T11:04:45;7.78;;;4.80;;
8094;SDS011;4090;49.270;8.696;2022-10-19T11:07:32;5.38;;;4.07;;
8094;SDS011;4090;49.270;8.696;2022-10-19T11:10:19;7.93;;;4.55;;
8094;SDS011;4090;49.270;8.696;2022-10-19T11:13:04;4.90;;;3.85;;
8094;SDS011;4090;49.270;8.696;2022-10-19T11:15:54;3.92;;;3.30;;
8094;SDS011;4090;49.270;8.696;2022-10-19T11:18:41;3.83;;;3.40;;
8094;SDS011;4090;49.270;8.696;2022-10-19T11:21:29;3.90;;;3.33;;
8094;SDS011;4090;49.270;8.696;2022-10-19T11:24:18;4.10;;;3.70;;
8094;SDS011;4090;49.270;8.696;2022-10-19T11:27:16;5.68;;;3.60;;
8094;SDS011;4090;49.270;8.696;2022-10-19T11:30:08;6.13;;;4.30;;
8094;SDS011;4090;49.270;8.696;2022-10-19T11:32:57;5.40;;;4.13;;
8094;SDS011;4090;49.270;8.696;2022-10-19T11:35:46;6.60;;;4.85;;
8094;SDS011;4090;49.270;8.696;2022-10-19T11:38:39;6.00;;;4.65;;
8094;SDS011;4090;49.270;8.696;2022-10-19T11:41:31;6.13;;;4.55;;
8094;SDS011;4090;49.270;8.696;2022-10-19T11:44:21;6.00;;;4.60;;
8094;SDS011;4090;49.270;8.696;2022-10-19T11:47:14;5.25;;;3.92;;
8094;SDS011;4090;49.270;8.696;2022-10-19T11:50:15;4.55;;;3.75;;
8094;SDS011;4090;49.270;8.696;2022-10-19T11:53:17;5.90;;;3.70;;
8094;SDS011;4090;49.270;8.696;2022-10-19T11:56:09;5.50;;;4.15;;
8094;SDS011;4090;49.270;8.696;2022-10-19T11:58:57;4.55;;;3.47;;
8094;SDS011;4090;49.270;8.696;2022-10-19T12:01:48;4.05;;;3.10;;
8094;SDS011;4090;49.270;8.696;2022-10-19T12:04:39;3.90;;;3.50;;
8094;SDS011;4090;49.270;8.696;2022-10-19T12:07:39;3.83;;;3.30;;
8094;SDS011;4090;49.270;8.696;2022-10-19T12:10:32;4.78;;;3.75;;
8094;SDS011;4090;49.270;8.696;2022-10-19T12:13:22;4.25;;;3.35;;
8094;SDS011;4090;49.270;8.696;2022-10-19T12:16:09;5.75;;;3.50;;
8094;SDS011;4090;49.270;8.696;2022-10-19T12:18:53;6.85;;;3.35;;
8094;SDS011;4090;49.270;8.696;2022-10-19T12:21:39;3.83;;;3.30;;
8094;SDS011;4090;49.270;8.696;2022-10-19T12:24:23;4.00;;;3.30;;
8094;SDS011;4090;49.270;8.696;2022-10-19T12:27:09;7.15;;;3.58;;
8094;SDS011;4090;49.270;8.696;2022-10-19T12:29:54;6.07;;;3.10;;
8094;SDS011;4090;49.270;8.696;2022-10-19T12:32:46;3.53;;;3.20;;
8094;SDS011;4090;49.270;8.696;2022-10-19T12:35:46;3.63;;;3.13;;
8094;SDS011;4090;49.270;8.696;2022-10-19T12:38:41;4.35;;;3.30;;
8094;SDS011;4090;49.270;8.696;2022-10-19T12:41:33;6.03;;;3.92;;
8094;SDS011;4090;49.270;8.696;2022-10-19T12:44:35;6.95;;;3.88;;
8094;SDS011;4090;49.270;8.696;2022-10-19T12:47:33;4.03;;;3.63;;
8094;SDS011;4090;49.270;8.696;2022-10-19T12:50:15;5.93;;;3.72;;
8094;SDS011;4090;49.270;8.696;2022-10-19T12:53:37;4.05;;;3.40;;
8094;SDS011;4090;49.270;8.696;2022-10-19T12:56:21;4.07;;;3.40;;
8094;SDS011;4090;49.270;8.696;2022-10-19T12:59:07;3.88;;;3.50;;
8094;SDS011;4090;49.270;8.696;2022-10-19T13:02:03;7.18;;;3.00;;
8094;SDS011;4090;49.270;8.696;2022-10-19T13:04:51;3.80;;;3.35;;
8094;SDS011;4090;49.270;8.696;2022-10-19T13:07:34;3.70;;;3.20;;
8094;SDS011;4090;49.270;8.696;2022-10-19T13:10:17;4.97;;;3.10;;
8094;SDS011;4090;49.270;8.696;2022-10-19T13:13:02;5.15;;;3.05;;
8094;SDS011;4090;49.270;8.696;2022-10-19T13:15:48;3.35;;;2.95;;
8094;SDS011;4090;49.270;8.696;2022-10-19T13:25:22;3.20;;;2.90;;
8094;SDS011;4090;49.270;8.696;2022-10-19T13:28:34;4.53;;;3.60;;
8094;SDS011;4090;49.270;8.696;2022-10-19T13:31:24;4.97;;;3.55;;
8094;SDS011;4090;49.270;8.696;2022-10-19T13:34:08;3.88;;;3.10;;
8094;SDS011;4090;49.270;8.696;2022-10-19T13:37:01;3.90;;;3.20;;
8094;SDS011;4090;49.270;8.696;2022-10-19T13:39:45;3.40;;;3.10;;
8094;SDS011;4090;49.270;8.696;2022-10-19T13:42:27;5.35;;;3.10;;
8094;SDS011;4090;49.270;8.696;2022-10-19T13:45:19;4.72;;;3.45;;
8094;SDS011;4090;49.270;8.696;2022-10-19T13:48:02;6.50;;;3.35;;
8094;SDS011;4090;49.270;8.696;2022-10-19T13:50:51;4.43;;;2.80;;
8094;SDS011;4090;49.270;8.696;2022-10-19T13:53:41;3.60;;;2.80;;
8094;SDS011;4090;49.270;8.696;2022-10-19T13:56:34;3.67;;;3.08;;
8094;SDS011;4090;49.270;8.696;2022-10-19T13:59:38;3.88;;;3.22;;
8094;SDS011;4090;49.270;8.696;2022-10-19T14:02:54;4.25;;;3.20;;
8094;SDS011;4090;49.270;8.696;2022-10-19T14:12:12;6.30;;;4.43;;
8094;SDS011;4090;49.270;8.696;2022-10-19T14:14:57;9.10;;;4.10;;
8094;SDS011;4090;49.270;8.696;2022-10-19T14:17:40;4.75;;;3.75;;
8094;SDS011;4090;49.270;8.696;2022-10-19T14:20:27;5.63;;;4.00;;
8094;SDS011;4090;49.270;8.696;2022-10-19T14:23:17;6.10;;;4.13;;
8094;SDS011;4090;49.270;8.696;2022-10-19T14:26:00;4.28;;;3.40;;
8094;SDS011;4090;49.270;8.696;2022-10-19T14:28:48;4.38;;;3.47;;
8094;SDS011;4090;49.270;8.696;2022-10-19T14:31:33;5.63;;;3.67;;
8094;SDS011;4090;49.270;8.696;2022-10-19T14:34:16;5.72;;;3.67;;
8094;SDS011;4090;49.270;8.696;2022-10-19T14:36:58;4.63;;;3.63;;
8094;SDS011;4090;49.270;8.696;2022-10-19T14:39:40;5.80;;;3.63;;
8094;SDS011;4090;49.270;8.696;2022-10-19T14:42:22;4.35;;;3.42;;
8094;SDS011;4090;49.270;8.696;2022-10-19T14:45:08;4.85;;;3.45;;
8094;SDS011;4090;49.270;8.696;2022-10-19T14:47:54;4.15;;;3.42;;
8094;SDS011;4090;49.270;8.696;2022-10-19T14:50:40;5.28;;;3.40;;
8094;SDS011;4090;49.270;8.696;2022-10-19T14:53:29;4.10;;;3.67;;
8094;SDS011;4090;49.270;8.696;2022-10-19T14:56:15;4.85;;;3.40;;
8094;SDS011;4090;49.270;8.696;2022-10-19T14:59:01;5.13;;;3.33;;
8094;SDS011;4090;49.270;8.696;2022-10-19T15:01:48;6.95;;;3.85;;
8094;SDS011;4090;49.270;8.696;2022-10-19T15:04:32;4.47;;;3.80;;
8094;SDS011;4090;49.270;8.696;2022-10-19T15:07:18;3.97;;;3.58;;
8094;SDS011;4090;49.270;8.696;2022-10-19T15:10:05;5.03;;;3.60;;
8094;SDS011;4090;49.270;8.696;2022-10-19T15:12:49;6.35;;;3.63;;
8094;SDS011;4090;49.270;8.696;2022-10-19T15:15:36;5.32;;;3.42;;
8094;SDS011;4090;49.270;8.696;2022-10-19T15:18:24;5.05;;;3.58;;
8094;SDS011;4090;49.270;8.696;2022-10-19T15:21:11;4.97;;;3.60;;
8094;SDS011;4090;49.270;8.696;2022-10-19T15:23:54;5.60;;;3.70;;
8094;SDS011;4090;49.270;8.696;2022-10-19T15:26:49;5.03;;;3.25;;
8094;SDS011;4090;49.270;8.696;2022-10-19T15:29:32;8.60;;;3.25;;
8094;SDS011;4090;49.270;8.696;2022-10-19T15:32:14;6.53;;;3.17;;
8094;SDS011;4090;49.270;8.696;2022-10-19T15:35:09;6.43;;;3.15;;
8094;SDS011;4090;49.270;8.696;2022-10-19T15:37:58;4.97;;;3.67;;
8094;SDS011;4090;49.270;8.696;2022-10-19T15:40:42;5.53;;;3.78;;
8094;SDS011;4090;49.270;8.696;2022-10-19T15:43:33;3.80;;;3.40;;
8094;SDS011;4090;49.270;8.696;2022-10-19T15:46:21;6.78;;;3.70;;
8094;SDS011;4090;49.270;8.696;2022-10-19T15:49:25;4.93;;;3.42;;
8094;SDS011;4090;49.270;8.696;2022-10-19T15:52:32;5.68;;;3.50;;
8094;SDS011;4090;49.270;8.696;2022-10-19T15:55:14;4.82;;;3.45;;
8094;SDS011;4090;49.270;8.696;2022-10-19T15:57:57;4.70;;;3.83;;
8094;SDS011;4090;49.270;8.696;2022-10-19T16:00:39;3.83;;;3.40;;
8094;SDS011;4090;49.270;8.696;2022-10-19T16:03:22;7.75;;;3.42;;
8094;SDS011;4090;49.270;8.696;2022-10-19T16:06:04;7.45;;;3.85;;
8094;SDS011;4090;49.270;8.696;2022-10-19T16:08:47;7.78;;;4.50;;
8094;SDS011;4090;49.270;8.696;2022-10-19T16:11:30;5.32;;;3.78;;
8094;SDS011;4090;49.270;8.696;2022-10-19T16:14:13;4.47;;;3.60;;
8094;SDS011;4090;49.270;8.696;2022-10-19T16:16:55;7.47;;;4.15;;
8094;SDS011;4090;49.270;8.696;2022-10-19T16:19:37;6.07;;;4.05;;
8094;SDS011;4090;49.270;8.696;2022-10-19T16:22:19;4.80;;;3.95;;
8094;SDS011;4090;49.270;8.696;2022-10-19T16:25:03;7.68;;;4.78;;
8094;SDS011;4090;49.270;8.696;2022-10-19T16:27:45;6.03;;;3.85;;
8094;SDS011;4090;49.270;8.696;2022-10-19T19:07:34;17.30;;;10.00;;
8094;SDS011;4090;49.270;8.696;2022-10-19T19:10:17;16.63;;;9.30;;
8094;SDS011;4090;49.270;8.696;2022-10-19T19:12:59;16.60;;;8.88;;
8094;SDS011;4090;49.270;8.696;2022-10-19T19:15:42;14.98;;;9.10;;
8094;SDS011;4090;49.270;8.696;2022-10-19T19:18:24;14.88;;;8.63;;
8094;SDS011;4090;49.270;8.696;2022-10-19T19:21:11;15.80;;;8.82;;
8094;SDS011;4090;49.270;8.696;2022-10-19T19:23:56;14.50;;;8.90;;
8094;SDS011;4090;49.270;8.696;2022-10-19T19:26:39;16.33;;;8.70;;
8094;SDS011;4090;49.270;8.696;2022-10-19T19:29:22;13.60;;;9.18;;
8094;SDS011;4090;49.270;8.696;2022-10-19T19:32:05;15.45;;;9.20;;
8094;SDS011;4090;49.270;8.696;2022-10-19T19:34:47;14.70;;;9.32;;
8094;SDS011;4090;49.270;8.696;2022-10-19T19:37:29;15.18;;;9.25;;
8094;SDS011;4090;49.270;8.696;2022-10-19T19:40:13;15.48;;;9.10;;
8094;SDS011;4090;49.270;8.696;2022-10-19T19:42:55;16.85;;;8.93;;
8094;SDS011;4090;49.270;8.696;2022-10-19T19:45:38;18.02;;;9.68;;
8094;SDS011;4090;49.270;8.696;2022-10-19T19:48:20;17.50;;;9.85;;
8094;SDS011;4090;49.270;8.696;2022-10-19T19:51:02;14.57;;;8.15;;
8094;SDS011;4090;49.270;8.696;2022-10-19T19:53:45;15.88;;;9.45;;
8094;SDS011;4090;49.270;8.696;2022-10-19T19:56:29;16.63;;;9.32;;
8094;SDS011;4090;49.270;8.696;2022-10-19T19:59:12;17.17;;;9.05;;
8094;SDS011;4090;49.270;8.696;2022-10-19T20:01:53;16.95;;;9.05;;
8094;SDS011;4090;49.270;8.696;2022-10-19T20:04:35;16.77;;;9.40;;
8094;SDS011;4090;49.270;8.696;2022-10-19T20:07:17;16.70;;;9.20;;
8094;SDS011;4090;49.270;8.696;2022-10-19T20:09:59;18.73;;;9.82;;
8094;SDS011;4090;49.270;8.696;2022-10-19T20:12:43;18.08;;;9.70;;
8094;SDS011;4090;49.270;8.696;2022-10-19T20:15:25;16.95;;;9.70;;
8094;SDS011;4090;49.270;8.696;2022-10-19T20:18:07;18.55;;;9.18;;
8094;SDS011;4090;49.270;8.696;2022-10-19T20:20:49;16.40;;;9.38;;
8094;SDS011;4090;49.270;8.696;2022-10-19T20:23:31;18.45;;;9.52;;
8094;SDS011;4090;49.270;8.696;2022-10-19T20:26:13;18.80;;;9.80;;
8094;SDS011;4090;49.270;8.696;2022-10-19T20:28:57;16.85;;;9.32;;
8094;SDS011;4090;49.270;8.696;2022-10-19T20:31:41;17.02;;;9.48;;
8094;SDS011;4090;49.270;8.696;2022-10-19T20:34:23;17.38;;;9.60;;
8094;SDS011;4090;49.270;8.696;2022-10-19T20:37:05;15.50;;;9.57;;
8094;SDS011;4090;49.270;8.696;2022-10-19T20:39:47;17.00;;;9.10;;
8094;SDS011;4090;49.270;8.696;2022-10-19T20:42:29;15.43;;;9.38;;
8094;SDS011;4090;49.270;8.696;2022-10-19T20:45:12;22.60;;;9.32;;
8094;SDS011;4090;49.270;8.696;2022-10-19T20:47:54;18.20;;;9.43;;
8094;SDS011;4090;49.270;8.696;2022-10-19T20:50:36;17.65;;;9.00;;
8094;SDS011;4090;49.270;8.696;2022-10-19T20:53:19;15.68;;;9.18;;
8094;SDS011;4090;49.270;8.696;2022-10-19T20:56:02;17.50;;;9.13;;
8094;SDS011;4090;49.270;8.696;2022-10-19T20:58:45;18.45;;;9.80;;
8094;SDS011;4090;49.270;8.696;2022-10-19T21:01:31;16.80;;;9.32;;
8094;SDS011;4090;49.270;8.696;2022-10-19T21:04:15;17.02;;;8.77;;
8094;SDS011;4090;49.270;8.696;2022-10-19T21:06:57;15.73;;;9.30;;
8094;SDS011;4090;49.270;8.696;2022-10-19T21:09:40;15.82;;;9.32;;
8094;SDS011;4090;49.270;8.696;2022-10-19T21:12:22;16.42;;;9.13;;
8094;SDS011;4090;49.270;8.696;2022-10-19T21:15:04;14.38;;;8.32;;
8094;SDS011;4090;49.270;8.696;2022-10-19T21:17:47;14.35;;;7.80;;
8094;SDS011;4090;49.270;8.696;2022-10-19T21:20:30;16.40;;;8.32;;
8094;SDS011;4090;49.270;8.696;2022-10-19T21:23:11;16.58;;;8.70;;
8094;SDS011;4090;49.270;8.696;2022-10-19T21:25:53;17.08;;;9.10;;
8094;SDS011;4090;49.270;8.696;2022-10-19T21:28:37;15.55;;;9.25;;
8094;SDS011;4090;49.270;8.696;2022-10-19T21:31:21;16.13;;;9.13;;
8094;SDS011;4090;49.270;8.696;2022-10-19T21:34:05;17.48;;;9.18;;
8094;SDS011;4090;49.270;8.696;2022-10-19T21:36:48;16.60;;;8.63;;
8094;SDS011;4090;49.270;8.696;2022-10-19T21:39:30;14.45;;;8.52;;
8094;SDS011;4090;49.270;8.696;2022-10-19T21:42:12;17.20;;;9.50;;
8094;SDS011;4090;49.270;8.696;2022-10-19T21:44:54;15.80;;;8.90;;
8094;SDS011;4090;49.270;8.696;2022-10-19T21:47:36;15.93;;;9.32;;
8094;SDS011;4090;49.270;8.696;2022-10-19T21:50:19;19.52;;;8.82;;
8094;SDS011;4090;49.270;8.696;2022-10-19T21:53:01;16.10;;;8.95;;
8094;SDS011;4090;49.270;8.696;2022-10-19T21:55:43;18.35;;;9.38;;
8094;SDS011;4090;49.270;8.696;2022-10-19T21:58:25;18.55;;;8.93;;
8094;SDS011;4090;49.270;8.696;2022-10-19T22:01:07;15.32;;;9.23;;
8094;SDS011;4090;49.270;8.696;2022-10-19T22:03:53;20.05;;;9.93;;
8094;SDS011;4090;49.270;8.696;2022-10-19T22:06:37;16.08;;;8.18;;
8094;SDS011;4090;49.270;8.696;2022-10-19T22:09:20;19.30;;;9.68;;
8094;SDS011;4090;49.270;8.696;2022-10-19T22:12:03;15.48;;;9.38;;
8094;SDS011;4090;49.270;8.696;2022-10-19T22:14:45;16.65;;;9.82;;
8094;SDS011;4090;49.270;8.696;2022-10-19T22:17:26;18.30;;;9.68;;
8094;SDS011;4090;49.270;8.696;2022-10-19T22:20:08;15.65;;;9.55;;
8094;SDS011;4090;49.270;8.696;2022-10-19T22:22:52;20.02;;;9.48;;
8094;SDS011;4090;49.270;8.696;2022-10-19T22:25:34;18.38;;;9.68;;
8094;SDS011;4090;49.270;8.696;2022-10-19T22:28:16;17.90;;;10.02;;
8094;SDS011;4090;49.270;8.696;2022-10-19T22:30:58;21.10;;;10.55;;
8094;SDS011;4090;49.270;8.696;2022-10-19T22:33:39;16.00;;;9.07;;
8094;SDS011;4090;49.270;8.696;2022-10-19T22:36:22;17.23;;;9.65;;
8094;SDS011;4090;49.270;8.696;2022-10-19T22:39:05;17.83;;;9.43;;
8094;SDS011;4090;49.270;8.696;2022-10-19T22:41:48;16.63;;;9.13;;
8094;SDS011;4090;49.270;8.696;2022-10-19T22:44:30;14.88;;;8.88;;
8094;SDS011;4090;49.270;8.696;2022-10-19T22:47:11;15.75;;;9.05;;
8094;SDS011;4090;49.270;8.696;2022-10-19T22:49:53;21.60;;;10.50;;
8094;SDS011;4090;49.270;8.696;2022-10-19T22:52:35;18.25;;;9.40;;
8094;SDS011;4090;49.270;8.696;2022-10-19T22:55:19;16.15;;;9.20;;
8094;SDS011;4090;49.270;8.696;2022-10-19T22:58:00;20.50;;;10.32;;
8094;SDS011;4090;49.270;8.696;2022-10-19T23:00:43;17.10;;;8.75;;
8094;SDS011;4090;49.270;8.696;2022-10-19T23:03:24;21.67;;;9.48;;
8094;SDS011;4090;49.270;8.696;2022-10-19T23:06:07;18.63;;;9.68;;
8094;SDS011;4090;49.270;8.696;2022-10-19T23:08:49;18.38;;;9.82;;
8094;SDS011;4090;49.270;8.696;2022-10-19T23:11:34;22.33;;;10.20;;
8094;SDS011;4090;49.270;8.696;2022-10-19T23:14:16;18.83;;;8.90;;
8094;SDS011;4090;49.270;8.696;2022-10-19T23:16:57;13.60;;;8.57;;
8094;SDS011;4090;49.270;8.696;2022-10-19T23:19:39;16.35;;;8.75;;
8094;SDS011;4090;49.270;8.696;2022-10-19T23:22:21;20.88;;;9.80;;
8094;SDS011;4090;49.270;8.696;2022-10-19T23:25:04;19.98;;;10.10;;
8094;SDS011;4090;49.270;8.696;2022-10-19T23:27:48;20.83;;;10.20;;
8094;SDS011;4090;49.270;8.696;2022-10-19T23:30:30;20.90;;;10.07;;
8094;SDS011;4090;49.270;8.696;2022-10-19T23:33:12;22.33;;;9.95;;
8094;SDS011;4090;49.270;8.696;2022-10-19T23:35:54;19.70;;;9.80;;
8094;SDS011;4090;49.270;8.696;2022-10-19T23:38:42;19.75;;;9.80;;
8094;SDS011;4090;49.270;8.696;2022-10-19T23:41:25;20.80;;;9.77;;
8094;SDS011;4090;49.270;8.696;2022-10-19T23:44:09;22.02;;;10.07;;
8094;SDS011;4090;49.270;8.696;2022-10-19T23:46:51;17.33;;;9.45;;
8094;SDS011;4090;49.270;8.696;2022-10-19T23:49:32;19.88;;;9.75;;
8094;SDS011;4090;49.270;8.696;2022-10-19T23:52:14;15.80;;;9.00;;
8094;SDS011;4090;49.270;8.696;2022-10-19T23:54:56;19.88;;;9.50;;
8094;SDS011;4090;49.270;8.696;2022-10-19T23:57:38;21.55;;;10.38;;
